AirNav   Air Wisconsin Up To $57,000 Bonus
 
 1479 users online  

KLOR Lowe Army Heliport (Fort Rucker)
Fort Rucker/Ozark, Alabama, USA

GOING TO FORT RUCKER/OZARK?


FAA INFORMATION EFFECTIVE 30 JANUARY 2020

Location

FAA Identifier: LOR
Lat/Long: 31-21-21.0000N 085-45-04.2000W
31-21.350000N 085-45.070000W
31.3558333,-85.7511667
(estimated)
Elevation: 294.3 ft. / 90 m (estimated)
Variation: 03W (2010)
From city: 3 miles W of FORT RUCKER OZARK, AL
Time zone: UTC -6 (UTC -5 during Daylight Saving Time)
Zip code: 36362

Heliport Operations

Heliport use: Private use. Permission required prior to landing
Control tower: yes
ARTCC: JACKSONVILLE CENTER
FSS: ANNISTON FLIGHT SERVICE STATION
NOTAMs facility: OZR (NOTAM-D service available)
Attendance: MON-FRI 0700-0100, EXCP HOL
Pattern altitude: 1094.3 ft. MSL
Segmented circle: no
Lights: SS-SR
Beacon: white-green (lighted land airport)
Operates sunset to sunrise.

Heliport Communications

ATIS: 361.1
LOWE GROUND: 357.15 [0700-0100 MON-FRI EXCP HOLS]
LOWE TOWER: 141.3 289.15 46.95FM [0700-0100 MON-FRI EXCP HOLS]
CAIRNS APPROACH: 133.45
CAIRNS DEPARTURE: 133.45
EMERG: 243.0
WX AWOS-3PT at EDN (8 nm SW): 118.9 (334-347-3524)
WX ASOS at DHN (16 nm E): PHONE 334-983-5999
  • APCH/DEP SVC PRVDD BY JACKSONVILLE ARTCC ON FREQS 134.3/353.5 (DOTHAN RCAG) WHEN CAIRNS APCH/DEP CLSD.

Nearby radio navigation aids

VOR radial/distance  VOR name  Freq  Var
HEYr261/(5.2)HANCHEY VOR110.6003W
OZRr349/5.4CAIRNS VOR/DME111.2003W
EDNr068/(8.5)ENTERPRISE VOR116.6003W
RRSr283/16.9WIREGRASS VORTAC111.6002E

 
NDB name  Hdg/Dist  Freq  Var  ID
LOWEat field26903WLOR .-.. --- .-.
HANCHEY259/5.122103WHYE .... -.-- .
RUCKR026/8.521203WOZ --- --..
BOLL WEEVIL088/11.935203WBVG -... ...- --.
JUDD087/32.926402WJUY .--- ..- -.--
BLOOD152/33.836504WTOI - --- ..
SOYYA319/39.732902WSMY ... -- -.--

Heliport Services

Runway Information

Helipad H1

Dimensions: 50 x 50 ft. / 15 x 15 m
Surface: asphalt
Latitude: 31-21.624517N
Longitude: 085-45.336950W
Elevation: 282.2 ft.
Traffic pattern: leftleft

Helipad H10

Dimensions: 50 x 50 ft. / 15 x 15 m
Surface: asphalt/concrete
Latitude: 31-21.578583N
Longitude: 085-45.336433W
Elevation: 282.5 ft.
Traffic pattern: leftleft

Helipad H11

Dimensions: 50 x 50 ft. / 15 x 15 m
Surface: asphalt
Latitude: 31-21.288733N
Longitude: 085-44.763017W
Elevation: 242.8 ft.
Traffic pattern: leftleft

Helipad H12

Dimensions: 50 x 50 ft. / 15 x 15 m
Surface: asphalt
Latitude: 31-20.907567N
Longitude: 085-44.863250W
Elevation: 243.5 ft.
Traffic pattern: leftleft

Helipad H2

Dimensions: 50 x 50 ft. / 15 x 15 m
Surface: asphalt
Latitude: 31-21.529133N
Longitude: 085-45.335850W
Elevation: 280.8 ft.
Traffic pattern: leftleft

Helipad H3

Dimensions: 50 x 50 ft. / 15 x 15 m
Surface: asphalt
Latitude: 31-21.498700N
Longitude: 085-44.886950W
Elevation: 273.9 ft.
Traffic pattern: leftleft

Helipad H4

Dimensions: 50 x 50 ft. / 15 x 15 m
Surface: asphalt
Latitude: 31-21.318950N
Longitude: 085-44.787000W
Elevation: 243.1 ft.
Traffic pattern: leftleft

Helipad H5

Dimensions: 50 x 50 ft. / 15 x 15 m
Surface: asphalt
Latitude: 31-20.907600N
Longitude: 085-44.905550W
Elevation: 243.5 ft.
Traffic pattern: leftleft

Helipad H6

Dimensions: 50 x 50 ft. / 15 x 15 m
Surface: asphalt
Latitude: 31-21.168317N
Longitude: 085-45.125317W
Elevation: 240.6 ft.
Traffic pattern: leftleft

Helipad H7

Dimensions: 50 x 50 ft. / 15 x 15 m
Surface: asphalt
Latitude: 31-21.135150N
Longitude: 085-45.099467W
Elevation: 239.3 ft.
Traffic pattern: leftleft

Helipad H8

Dimensions: 50 x 50 ft. / 15 x 15 m
Surface: asphalt
Latitude: 31-21.591100N
Longitude: 085-44.935900W
Elevation: 293.9 ft.
Traffic pattern: leftleft

Helipad H9

Dimensions: 50 x 50 ft. / 15 x 15 m
Surface: asphalt
Latitude: 31-21.103850N
Longitude: 085-45.074067W
Elevation: 238.7 ft.
Traffic pattern: leftleft

Heliport Ownership and Management from official FAA records

Ownership: U.S. Army
Owner: US ARMY LOWE ARMY HELIPAD
9325 GUNSTON ROAD
FT BELVOIR, VA 22060
Manager: Phone 205-255-2086

Additional Remarks

HELIPADS LOCATED ON ENDS OF RWYS.
FUEL: J8
SEE FLIP AP/1, FLT HAZ, FORT RUCKER.
RSTD - NO TRAN ACFT. NO USABLE RWY ON LOWE AHP AT THIS TIME.
CAUTION: INTS STU TRNG.
WX SVC AVAIL 1200-2000Z++ MON-FRI EXC HOL. PMSV METRO 243.35
WHEN ATCT CLSD, FOR CD CTC JACKSONVILLE ARTCC AT 904-845-1592.

Instrument Procedures

NOTE: All procedures below are presented as PDF files. If you need a reader for these files, you should download the free Adobe Reader.

NOT FOR NAVIGATION. Please procure official charts for flight.
FAA instrument procedures published for use from 30 January 2020 at 0901Z to 27 Feburary 2020 at 0900Z.

 
IAPs - Instrument Approach Procedures
COPTER RNAV (GPS) 069   download (77KB)
COPTER VOR 069   download (80KB)
COPTER NDB 066   download (84KB)
NOTE: Special Take-Off Minimums/Departure Procedures apply   download (329KB)

Other nearby airports with instrument procedures:

KHEY - Hanchey Army Heliport (Fort Rucker) (5 nm E)
KOZR - Cairns Army Airfield (Fort Rucker) (5 nm S)
71J - Ozark-Blackwell Field Airport (8 nm NE)
KEDN - Enterprise Municipal Airport (8 nm SW)
KDHN - Dothan Regional Airport (16 nm E)
33J - Geneva Municipal Airport (19 nm S)
 
Loc | Ops | Rwys | IFR | FBO | Links
Com | Nav | Svcs | Stats | Notes

Continental Services
AirBoss

 
Area around KLOR (Lowe Army Heliport (Fort Rucker))
 
Road maps at: MapQuest Bing Google
 
Aerial photo
WARNING: Photo may not be current or correct
Aerial photo of KLOR (Lowe Army Heliport (Fort Rucker))
Do you have a better or more recent aerial photo of Lowe Army Heliport (Fort Rucker) that you would like to share? If so, please send us your photo.

 
Sectional chart

 
Airport distance calculator
Flying to Lowe Army Heliport (Fort Rucker)? Find the distance to fly.

From to KLOR

Sunrise and sunset
Times for 24-Feb-2020
 Local
(UTC-6)
 Zulu
(UTC)
Morning civil twilight05:5211:52
Sunrise06:1612:16
Sunset17:3623:36
Evening civil twilight18:0100:01

Current date and time
Zulu (UTC)  24-Feb-2020 20:43:03
Local (UTC-6)  24-Feb-2020 14:43:03
 
METAR
KLOR 242003Z AUTO 19008KT 10SM SCT007 OVC014 17/16 A2989 RMK AO2 OVC V BKN SLP105
KOZR 
5nm S 
242017Z AUTO 14008KT 10SM SCT008 BKN018 OVC023 17/16 A2989 RMK AO2 DZB01E12 SLP123
KHEY 
5nm E 
242008Z AUTO 16005KT 10SM FEW006 SCT010 OVC022 17/15 A2988 RMK AO2 CIG 006V023 SLP120
KSXS 
5nm W 
241958Z AUTO 19009KT 10SM BKN013 OVC020 18/15 A2988 RMK AO2 RAB00E11 CIG 013V020 BKN V SCT SLP119 P0000
KEDN 
8nm SW 
242015Z AUTO 16007KT 10SM BKN011 OVC017 17/16 A2989 RMK AO2 T01720164
KDHN 
16nm E 
242001Z 17009KT 3SM -RA SCT027 OVC036 18/14 A2994 RMK AO2 P0000 T01780144
TAF
KOZR 
5nm S 
241600Z 2416/2522 15008KT 9999 VCSH FEW040 SCT200 510103 QNH2984INS BECMG 2417/2418 14012KT 9000 -SHRA BKN020 QNH2982INS BECMG 2423/2424 VRB06KT 8000 -SHRA BKN010 OVC025 520103 QNH2981INS BECMG 2503/2504 VRB06KT 9999 NSW BKN005 520103 QNH2980INS BECMG 2515/2516 25006KT 9999 SCT010 BKN030 OVC150 QNH2982INS TX23/2420Z TN13/2416Z
KDHN 
16nm E 
241720Z 2418/2518 15010KT P6SM -SHRA BKN040 FM242300 18012KT P6SM -SHRA OVC015 FM250300 18009KT P6SM -SHRA OVC008 FM251500 25005KT P6SM OVC009
NOTAMs
Click for the latest NOTAMs
NOTAMs are issued by the DoD/FAA and will open in a separate window not controlled by AirNav.

 

 
 

Would you like to see your business listed on this page?

 If your business provides an interesting product or service to pilots, flight crews, aircraft, or users of the Lowe Army Heliport (Fort Rucker), you should consider listing it here.  To start the listing process, click on the button below
 
Add a business
 

Other Pages about Lowe Army Heliport (Fort Rucker)

Update a link
 
Copyright © AirNav, LLC. All rights reserved. Privacy Policy  Contact